logo
Search for airport 
image banner adimage banner adimage banner ad
image banner ad

OPKC - Karachi / Jinnah International

Located in Karachi, Pakistan

ICAO - OPKC, IATA - KHI

Data provided by Airmate  

General information

Coordinates: N24°54'31" E67°9'46"
Elevation is 100 feet MSL.
 
Rated:
View ratings:
[VIEW]
View others Airports in Sindh

Operational data

Special qualification required
Current time UTC:
Current local time:
Weather
METAR: OPKC 191530Z 24014KT 6000 SCT030 26/20 Q1007 NOSIG
TAF: TAF OPKC 191100Z 1912/2018 24015G25KT 6000 SCT030 FM192000 26010KT 4000 HZ SCT025 TEMPO 2000/2005 28007KT 3000 HZ SCT025 FM200500 25010G20KT 6000 SCT030
View NOTAMs / SUP AIP / TFR affecting this airport [VIEW]
Communications frequencies: [VIEW]

Runways:

RWY identifierQFULength (ft)Width (ft)SurfaceLDA (ft)
07R74°11155148CON
25L254°11155148CON
07L74°10499151CON
25R254°10499151CON

Airport contact information

Address: Karachi Pakistan

Satellite view of OPKC